sensor_id;sensor_type;location;lat;lon;timestamp;P1;durP1;ratioP1;P2;durP2;ratioP2
17228;SDS011;8731;50.364;8.958;2023-03-12T00:03:49;5.73;;;3.40;;
17228;SDS011;8731;50.364;8.958;2023-03-12T00:08:13;8.23;;;3.63;;
17228;SDS011;8731;50.364;8.958;2023-03-12T00:12:35;7.90;;;3.57;;
17228;SDS011;8731;50.364;8.958;2023-03-12T00:16:58;6.40;;;3.83;;
17228;SDS011;8731;50.364;8.958;2023-03-12T00:21:21;4.67;;;3.23;;
17228;SDS011;8731;50.364;8.958;2023-03-12T00:25:44;7.00;;;3.53;;
17228;SDS011;8731;50.364;8.958;2023-03-12T00:30:07;6.67;;;3.77;;
17228;SDS011;8731;50.364;8.958;2023-03-12T00:34:32;5.23;;;3.50;;
17228;SDS011;8731;50.364;8.958;2023-03-12T00:38:55;7.97;;;3.67;;
17228;SDS011;8731;50.364;8.958;2023-03-12T00:43:19;6.00;;;3.23;;
17228;SDS011;8731;50.364;8.958;2023-03-12T00:47:41;8.93;;;3.77;;
17228;SDS011;8731;50.364;8.958;2023-03-12T00:52:05;10.77;;;4.27;;
17228;SDS011;8731;50.364;8.958;2023-03-12T00:56:27;5.93;;;3.73;;
17228;SDS011;8731;50.364;8.958;2023-03-12T01:00:50;7.00;;;4.13;;
17228;SDS011;8731;50.364;8.958;2023-03-12T01:05:13;6.70;;;3.87;;
17228;SDS011;8731;50.364;8.958;2023-03-12T01:09:37;6.53;;;3.93;;
17228;SDS011;8731;50.364;8.958;2023-03-12T01:13:59;6.17;;;3.77;;
17228;SDS011;8731;50.364;8.958;2023-03-12T01:18:24;7.20;;;3.47;;
17228;SDS011;8731;50.364;8.958;2023-03-12T01:22:46;9.07;;;3.87;;
17228;SDS011;8731;50.364;8.958;2023-03-12T01:27:09;9.30;;;5.03;;
17228;SDS011;8731;50.364;8.958;2023-03-12T01:31:32;29.33;;;15.73;;
17228;SDS011;8731;50.364;8.958;2023-03-12T01:35:54;24.17;;;14.40;;
17228;SDS011;8731;50.364;8.958;2023-03-12T01:40:17;19.67;;;11.40;;
17228;SDS011;8731;50.364;8.958;2023-03-12T01:44:50;16.17;;;7.57;;
17228;SDS011;8731;50.364;8.958;2023-03-12T01:49:14;13.07;;;7.73;;
17228;SDS011;8731;50.364;8.958;2023-03-12T01:53:44;15.17;;;9.07;;
17228;SDS011;8731;50.364;8.958;2023-03-12T01:58:11;16.43;;;9.40;;
17228;SDS011;8731;50.364;8.958;2023-03-12T02:02:36;11.80;;;7.00;;
17228;SDS011;8731;50.364;8.958;2023-03-12T02:07:01;16.70;;;9.47;;
17228;SDS011;8731;50.364;8.958;2023-03-12T02:11:27;11.23;;;6.37;;
17228;SDS011;8731;50.364;8.958;2023-03-12T02:15:49;6.37;;;4.17;;
17228;SDS011;8731;50.364;8.958;2023-03-12T02:20:14;11.00;;;6.90;;
17228;SDS011;8731;50.364;8.958;2023-03-12T02:24:46;15.47;;;9.63;;
17228;SDS011;8731;50.364;8.958;2023-03-12T02:29:18;9.40;;;5.40;;
17228;SDS011;8731;50.364;8.958;2023-03-12T02:33:40;12.37;;;6.10;;
17228;SDS011;8731;50.364;8.958;2023-03-12T02:42:56;7.27;;;3.83;;
17228;SDS011;8731;50.364;8.958;2023-03-12T02:47:21;9.13;;;3.90;;
17228;SDS011;8731;50.364;8.958;2023-03-12T02:51:44;8.73;;;4.93;;
17228;SDS011;8731;50.364;8.958;2023-03-12T02:56:07;5.27;;;3.60;;
17228;SDS011;8731;50.364;8.958;2023-03-12T03:00:30;10.57;;;4.30;;
17228;SDS011;8731;50.364;8.958;2023-03-12T03:04:54;7.07;;;3.10;;
17228;SDS011;8731;50.364;8.958;2023-03-12T03:09:16;6.83;;;3.47;;
17228;SDS011;8731;50.364;8.958;2023-03-12T03:13:41;4.43;;;3.43;;
17228;SDS011;8731;50.364;8.958;2023-03-12T03:18:04;8.93;;;4.43;;
17228;SDS011;8731;50.364;8.958;2023-03-12T03:22:28;9.57;;;5.27;;
17228;SDS011;8731;50.364;8.958;2023-03-12T03:26:50;9.73;;;4.73;;
17228;SDS011;8731;50.364;8.958;2023-03-12T03:31:13;5.97;;;3.80;;
17228;SDS011;8731;50.364;8.958;2023-03-12T03:35:36;12.93;;;6.23;;
17228;SDS011;8731;50.364;8.958;2023-03-12T03:40:00;7.67;;;4.57;;
17228;SDS011;8731;50.364;8.958;2023-03-12T03:44:23;8.93;;;4.13;;
17228;SDS011;8731;50.364;8.958;2023-03-12T03:48:46;9.87;;;6.77;;
17228;SDS011;8731;50.364;8.958;2023-03-12T03:53:09;20.97;;;11.37;;
17228;SDS011;8731;50.364;8.958;2023-03-12T03:57:33;11.90;;;7.27;;
17228;SDS011;8731;50.364;8.958;2023-03-12T04:01:56;16.43;;;8.00;;
17228;SDS011;8731;50.364;8.958;2023-03-12T04:06:19;37.70;;;19.30;;
17228;SDS011;8731;50.364;8.958;2023-03-12T04:10:42;17.77;;;9.03;;
17228;SDS011;8731;50.364;8.958;2023-03-12T04:15:06;5.80;;;3.53;;
17228;SDS011;8731;50.364;8.958;2023-03-12T04:19:29;14.37;;;6.37;;
17228;SDS011;8731;50.364;8.958;2023-03-12T04:23:51;6.60;;;3.67;;
17228;SDS011;8731;50.364;8.958;2023-03-12T04:28:17;8.13;;;3.87;;
17228;SDS011;8731;50.364;8.958;2023-03-12T04:32:41;9.83;;;4.87;;
17228;SDS011;8731;50.364;8.958;2023-03-12T04:37:04;7.13;;;3.50;;
17228;SDS011;8731;50.364;8.958;2023-03-12T04:41:26;5.27;;;3.40;;
17228;SDS011;8731;50.364;8.958;2023-03-12T04:45:55;6.10;;;3.30;;
17228;SDS011;8731;50.364;8.958;2023-03-12T04:50:20;10.23;;;5.33;;
17228;SDS011;8731;50.364;8.958;2023-03-12T04:54:42;15.90;;;7.77;;
17228;SDS011;8731;50.364;8.958;2023-03-12T04:59:05;8.07;;;3.67;;
17228;SDS011;8731;50.364;8.958;2023-03-12T05:03:28;8.67;;;4.00;;
17228;SDS011;8731;50.364;8.958;2023-03-12T05:07:52;7.27;;;2.80;;
17228;SDS011;8731;50.364;8.958;2023-03-12T05:12:15;3.13;;;2.10;;
17228;SDS011;8731;50.364;8.958;2023-03-12T05:16:37;6.43;;;3.63;;
17228;SDS011;8731;50.364;8.958;2023-03-12T05:21:02;11.07;;;5.27;;
17228;SDS011;8731;50.364;8.958;2023-03-12T05:25:28;14.53;;;6.30;;
17228;SDS011;8731;50.364;8.958;2023-03-12T05:29:51;7.03;;;3.97;;
17228;SDS011;8731;50.364;8.958;2023-03-12T05:34:14;4.63;;;3.27;;
17228;SDS011;8731;50.364;8.958;2023-03-12T05:38:38;4.40;;;2.63;;
17228;SDS011;8731;50.364;8.958;2023-03-12T05:43:04;4.33;;;3.10;;
17228;SDS011;8731;50.364;8.958;2023-03-12T05:47:27;6.77;;;4.00;;
17228;SDS011;8731;50.364;8.958;2023-03-12T05:51:49;5.43;;;2.77;;
17228;SDS011;8731;50.364;8.958;2023-03-12T05:56:15;6.27;;;3.10;;
17228;SDS011;8731;50.364;8.958;2023-03-12T06:00:42;7.97;;;3.40;;
17228;SDS011;8731;50.364;8.958;2023-03-12T06:05:08;5.67;;;2.70;;
17228;SDS011;8731;50.364;8.958;2023-03-12T06:09:31;9.47;;;3.50;;
17228;SDS011;8731;50.364;8.958;2023-03-12T06:13:54;6.07;;;3.10;;
17228;SDS011;8731;50.364;8.958;2023-03-12T06:18:19;5.80;;;2.80;;
17228;SDS011;8731;50.364;8.958;2023-03-12T06:22:42;6.90;;;3.10;;
17228;SDS011;8731;50.364;8.958;2023-03-12T06:27:04;5.73;;;3.03;;
17228;SDS011;8731;50.364;8.958;2023-03-12T06:31:26;7.03;;;3.50;;
17228;SDS011;8731;50.364;8.958;2023-03-12T06:35:53;7.23;;;3.17;;
17228;SDS011;8731;50.364;8.958;2023-03-12T06:40:15;5.53;;;2.73;;
17228;SDS011;8731;50.364;8.958;2023-03-12T06:44:38;5.20;;;2.83;;
17228;SDS011;8731;50.364;8.958;2023-03-12T06:49:00;4.90;;;2.70;;
17228;SDS011;8731;50.364;8.958;2023-03-12T06:53:24;5.40;;;2.60;;
17228;SDS011;8731;50.364;8.958;2023-03-12T06:57:46;3.90;;;2.27;;
17228;SDS011;8731;50.364;8.958;2023-03-12T07:02:08;6.43;;;2.73;;
17228;SDS011;8731;50.364;8.958;2023-03-12T07:06:32;4.57;;;2.50;;
17228;SDS011;8731;50.364;8.958;2023-03-12T07:10:57;6.33;;;2.40;;
17228;SDS011;8731;50.364;8.958;2023-03-12T07:15:21;6.10;;;2.70;;
17228;SDS011;8731;50.364;8.958;2023-03-12T07:19:44;10.00;;;5.73;;
17228;SDS011;8731;50.364;8.958;2023-03-12T07:24:06;8.37;;;3.60;;
17228;SDS011;8731;50.364;8.958;2023-03-12T07:28:30;7.00;;;2.17;;
17228;SDS011;8731;50.364;8.958;2023-03-12T07:32:52;7.50;;;3.60;;
17228;SDS011;8731;50.364;8.958;2023-03-12T07:37:14;10.50;;;5.20;;
17228;SDS011;8731;50.364;8.958;2023-03-12T07:41:37;6.20;;;2.03;;
17228;SDS011;8731;50.364;8.958;2023-03-12T07:46:00;5.13;;;2.13;;
17228;SDS011;8731;50.364;8.958;2023-03-12T07:50:23;9.97;;;4.80;;
17228;SDS011;8731;50.364;8.958;2023-03-12T07:54:45;8.30;;;3.90;;
17228;SDS011;8731;50.364;8.958;2023-03-12T07:59:07;6.93;;;2.10;;
17228;SDS011;8731;50.364;8.958;2023-03-12T08:03:31;6.57;;;2.00;;
17228;SDS011;8731;50.364;8.958;2023-03-12T08:07:53;4.10;;;2.03;;
17228;SDS011;8731;50.364;8.958;2023-03-12T08:12:16;7.47;;;2.47;;
17228;SDS011;8731;50.364;8.958;2023-03-12T08:16:38;5.43;;;1.93;;
17228;SDS011;8731;50.364;8.958;2023-03-12T08:21:01;6.27;;;2.20;;
17228;SDS011;8731;50.364;8.958;2023-03-12T08:25:24;3.40;;;2.20;;
17228;SDS011;8731;50.364;8.958;2023-03-12T08:29:46;8.23;;;2.93;;
17228;SDS011;8731;50.364;8.958;2023-03-12T08:34:09;5.10;;;3.10;;
17228;SDS011;8731;50.364;8.958;2023-03-12T08:38:33;4.83;;;3.00;;
17228;SDS011;8731;50.364;8.958;2023-03-12T08:42:55;5.03;;;3.10;;
17228;SDS011;8731;50.364;8.958;2023-03-12T08:47:17;5.43;;;3.00;;
17228;SDS011;8731;50.364;8.958;2023-03-12T08:51:40;7.00;;;3.20;;
17228;SDS011;8731;50.364;8.958;2023-03-12T08:56:04;10.30;;;3.97;;
17228;SDS011;8731;50.364;8.958;2023-03-12T09:00:27;6.17;;;2.50;;
17228;SDS011;8731;50.364;8.958;2023-03-12T09:04:49;5.10;;;2.60;;
17228;SDS011;8731;50.364;8.958;2023-03-12T09:09:11;7.00;;;2.50;;
17228;SDS011;8731;50.364;8.958;2023-03-12T09:13:35;5.37;;;2.90;;
17228;SDS011;8731;50.364;8.958;2023-03-12T09:17:58;8.20;;;2.60;;
17228;SDS011;8731;50.364;8.958;2023-03-12T09:22:20;5.63;;;3.00;;
17228;SDS011;8731;50.364;8.958;2023-03-12T09:26:42;8.93;;;3.60;;
17228;SDS011;8731;50.364;8.958;2023-03-12T09:31:06;6.20;;;2.97;;
17228;SDS011;8731;50.364;8.958;2023-03-12T09:35:29;5.87;;;3.27;;
17228;SDS011;8731;50.364;8.958;2023-03-12T09:39:51;4.77;;;3.13;;
17228;SDS011;8731;50.364;8.958;2023-03-12T09:44:15;9.00;;;4.33;;
17228;SDS011;8731;50.364;8.958;2023-03-12T09:48:49;6.87;;;3.00;;
17228;SDS011;8731;50.364;8.958;2023-03-12T09:53:19;5.53;;;3.17;;
17228;SDS011;8731;50.364;8.958;2023-03-12T09:57:51;5.83;;;3.67;;
17228;SDS011;8731;50.364;8.958;2023-03-12T10:02:20;7.27;;;4.20;;
17228;SDS011;8731;50.364;8.958;2023-03-12T10:07:17;7.67;;;3.80;;
17228;SDS011;8731;50.364;8.958;2023-03-12T10:11:51;6.17;;;3.70;;
17228;SDS011;8731;50.364;8.958;2023-03-12T10:16:28;4.67;;;3.77;;
17228;SDS011;8731;50.364;8.958;2023-03-12T10:21:13;7.80;;;4.40;;
17228;SDS011;8731;50.364;8.958;2023-03-12T10:25:47;7.53;;;3.87;;
17228;SDS011;8731;50.364;8.958;2023-03-12T10:30:17;8.17;;;5.47;;
17228;SDS011;8731;50.364;8.958;2023-03-12T10:34:46;8.97;;;4.90;;
17228;SDS011;8731;50.364;8.958;2023-03-12T10:39:13;10.93;;;5.93;;
17228;SDS011;8731;50.364;8.958;2023-03-12T10:43:41;11.50;;;7.17;;
17228;SDS011;8731;50.364;8.958;2023-03-12T10:48:04;10.90;;;7.73;;
17228;SDS011;8731;50.364;8.958;2023-03-12T10:52:30;15.67;;;7.63;;
17228;SDS011;8731;50.364;8.958;2023-03-12T10:56:53;17.33;;;9.50;;
17228;SDS011;8731;50.364;8.958;2023-03-12T11:01:18;10.17;;;6.47;;
17228;SDS011;8731;50.364;8.958;2023-03-12T11:05:45;16.20;;;9.07;;
17228;SDS011;8731;50.364;8.958;2023-03-12T11:10:18;12.23;;;9.93;;
17228;SDS011;8731;50.364;8.958;2023-03-12T11:14:45;13.37;;;10.10;;
17228;SDS011;8731;50.364;8.958;2023-03-12T11:19:11;14.03;;;9.53;;
17228;SDS011;8731;50.364;8.958;2023-03-12T11:23:36;13.37;;;10.23;;
17228;SDS011;8731;50.364;8.958;2023-03-12T11:28:02;13.53;;;10.77;;
17228;SDS011;8731;50.364;8.958;2023-03-12T11:32:29;19.53;;;12.13;;
17228;SDS011;8731;50.364;8.958;2023-03-12T11:36:59;12.50;;;9.43;;
17228;SDS011;8731;50.364;8.958;2023-03-12T11:41:35;16.03;;;12.03;;
17228;SDS011;8731;50.364;8.958;2023-03-12T11:46:17;14.73;;;11.47;;
17228;SDS011;8731;50.364;8.958;2023-03-12T11:50:57;16.17;;;12.13;;
17228;SDS011;8731;50.364;8.958;2023-03-12T11:55:39;16.63;;;12.40;;
17228;SDS011;8731;50.364;8.958;2023-03-12T12:00:14;17.00;;;13.20;;
17228;SDS011;8731;50.364;8.958;2023-03-12T12:04:52;20.97;;;15.23;;
17228;SDS011;8731;50.364;8.958;2023-03-12T12:09:31;21.00;;;14.17;;
17228;SDS011;8731;50.364;8.958;2023-03-12T12:14:06;22.47;;;16.17;;
17228;SDS011;8731;50.364;8.958;2023-03-12T12:18:48;20.17;;;15.00;;
17228;SDS011;8731;50.364;8.958;2023-03-12T12:23:31;23.07;;;16.40;;
17228;SDS011;8731;50.364;8.958;2023-03-12T12:28:15;24.87;;;17.57;;
17228;SDS011;8731;50.364;8.958;2023-03-12T12:33:18;20.77;;;16.00;;
17228;SDS011;8731;50.364;8.958;2023-03-12T12:37:57;22.17;;;15.83;;
17228;SDS011;8731;50.364;8.958;2023-03-12T12:42:27;24.10;;;19.07;;
17228;SDS011;8731;50.364;8.958;2023-03-12T12:46:56;27.83;;;17.40;;
17228;SDS011;8731;50.364;8.958;2023-03-12T12:51:26;25.63;;;18.23;;
17228;SDS011;8731;50.364;8.958;2023-03-12T12:56:05;25.87;;;18.30;;
17228;SDS011;8731;50.364;8.958;2023-03-12T13:00:39;26.00;;;18.57;;
17228;SDS011;8731;50.364;8.958;2023-03-12T13:05:16;23.90;;;18.50;;
17228;SDS011;8731;50.364;8.958;2023-03-12T13:09:44;24.27;;;17.70;;
17228;SDS011;8731;50.364;8.958;2023-03-12T13:14:14;23.33;;;17.73;;
17228;SDS011;8731;50.364;8.958;2023-03-12T13:18:57;21.33;;;16.37;;
17228;SDS011;8731;50.364;8.958;2023-03-12T13:23:28;18.60;;;16.13;;
17228;SDS011;8731;50.364;8.958;2023-03-12T13:28:01;25.40;;;18.67;;
17228;SDS011;8731;50.364;8.958;2023-03-12T13:33:04;21.33;;;14.57;;
17228;SDS011;8731;50.364;8.958;2023-03-12T13:42:26;18.53;;;16.63;;
17228;SDS011;8731;50.364;8.958;2023-03-12T13:47:14;18.40;;;14.30;;
17228;SDS011;8731;50.364;8.958;2023-03-12T13:51:52;17.57;;;14.47;;
17228;SDS011;8731;50.364;8.958;2023-03-12T13:56:24;15.10;;;13.47;;
17228;SDS011;8731;50.364;8.958;2023-03-12T14:00:51;14.20;;;12.43;;
17228;SDS011;8731;50.364;8.958;2023-03-12T14:05:19;19.60;;;12.00;;
17228;SDS011;8731;50.364;8.958;2023-03-12T14:09:43;17.57;;;13.23;;
17228;SDS011;8731;50.364;8.958;2023-03-12T14:19:15;14.87;;;13.20;;
17228;SDS011;8731;50.364;8.958;2023-03-12T14:23:48;14.07;;;12.17;;
17228;SDS011;8731;50.364;8.958;2023-03-12T14:28:16;17.07;;;14.33;;
17228;SDS011;8731;50.364;8.958;2023-03-12T14:32:42;17.57;;;13.97;;
17228;SDS011;8731;50.364;8.958;2023-03-12T14:37:09;19.30;;;13.83;;
17228;SDS011;8731;50.364;8.958;2023-03-12T14:41:38;18.77;;;14.13;;
17228;SDS011;8731;50.364;8.958;2023-03-12T14:46:12;14.50;;;12.90;;
17228;SDS011;8731;50.364;8.958;2023-03-12T14:50:38;19.63;;;13.83;;
17228;SDS011;8731;50.364;8.958;2023-03-12T14:55:02;14.87;;;12.03;;
17228;SDS011;8731;50.364;8.958;2023-03-12T14:59:33;14.97;;;13.20;;
17228;SDS011;8731;50.364;8.958;2023-03-12T15:03:58;13.80;;;12.07;;
17228;SDS011;8731;50.364;8.958;2023-03-12T15:08:23;16.37;;;12.47;;
17228;SDS011;8731;50.364;8.958;2023-03-12T15:12:49;16.30;;;13.47;;
17228;SDS011;8731;50.364;8.958;2023-03-12T15:17:18;18.10;;;14.10;;
17228;SDS011;8731;50.364;8.958;2023-03-12T15:21:44;21.10;;;16.80;;
17228;SDS011;8731;50.364;8.958;2023-03-12T15:26:08;16.83;;;13.17;;
17228;SDS011;8731;50.364;8.958;2023-03-12T15:30:33;14.73;;;12.87;;
17228;SDS011;8731;50.364;8.958;2023-03-12T15:34:59;14.30;;;12.77;;
17228;SDS011;8731;50.364;8.958;2023-03-12T15:39:34;13.67;;;11.97;;
17228;SDS011;8731;50.364;8.958;2023-03-12T15:43:58;14.90;;;12.07;;
17228;SDS011;8731;50.364;8.958;2023-03-12T15:48:22;16.60;;;12.83;;
17228;SDS011;8731;50.364;8.958;2023-03-12T15:52:58;15.13;;;12.37;;
17228;SDS011;8731;50.364;8.958;2023-03-12T15:57:23;17.47;;;12.60;;
17228;SDS011;8731;50.364;8.958;2023-03-12T16:01:47;14.47;;;12.60;;
17228;SDS011;8731;50.364;8.958;2023-03-12T16:06:12;14.23;;;12.17;;
17228;SDS011;8731;50.364;8.958;2023-03-12T16:10:46;15.97;;;12.37;;
17228;SDS011;8731;50.364;8.958;2023-03-12T16:15:14;16.87;;;13.50;;
17228;SDS011;8731;50.364;8.958;2023-03-12T16:19:40;16.67;;;14.80;;
17228;SDS011;8731;50.364;8.958;2023-03-12T16:24:03;17.13;;;13.60;;
17228;SDS011;8731;50.364;8.958;2023-03-12T16:28:27;21.37;;;14.80;;
17228;SDS011;8731;50.364;8.958;2023-03-12T16:32:50;23.63;;;17.23;;
17228;SDS011;8731;50.364;8.958;2023-03-12T16:37:13;28.77;;;22.33;;
17228;SDS011;8731;50.364;8.958;2023-03-12T16:41:35;26.20;;;18.37;;
17228;SDS011;8731;50.364;8.958;2023-03-12T16:46:02;15.97;;;13.33;;
17228;SDS011;8731;50.364;8.958;2023-03-12T16:50:30;16.50;;;13.03;;
17228;SDS011;8731;50.364;8.958;2023-03-12T16:54:52;17.03;;;11.93;;
17228;SDS011;8731;50.364;8.958;2023-03-12T16:59:17;20.13;;;14.67;;
17228;SDS011;8731;50.364;8.958;2023-03-12T17:03:47;18.60;;;14.13;;
17228;SDS011;8731;50.364;8.958;2023-03-12T17:08:12;17.13;;;13.67;;
17228;SDS011;8731;50.364;8.958;2023-03-12T17:12:35;15.50;;;12.30;;
17228;SDS011;8731;50.364;8.958;2023-03-12T17:17:00;16.03;;;12.37;;
17228;SDS011;8731;50.364;8.958;2023-03-12T17:21:23;16.30;;;12.27;;
17228;SDS011;8731;50.364;8.958;2023-03-12T17:25:46;16.73;;;11.47;;
17228;SDS011;8731;50.364;8.958;2023-03-12T17:30:09;21.53;;;12.40;;
17228;SDS011;8731;50.364;8.958;2023-03-12T17:34:33;17.53;;;11.33;;
17228;SDS011;8731;50.364;8.958;2023-03-12T17:38:57;17.23;;;12.13;;
17228;SDS011;8731;50.364;8.958;2023-03-12T17:43:19;18.67;;;12.70;;
17228;SDS011;8731;50.364;8.958;2023-03-12T17:47:42;19.80;;;12.53;;
17228;SDS011;8731;50.364;8.958;2023-03-12T17:52:04;18.00;;;13.17;;
17228;SDS011;8731;50.364;8.958;2023-03-12T17:56:28;18.03;;;11.93;;
17228;SDS011;8731;50.364;8.958;2023-03-12T18:00:50;19.53;;;12.73;;
17228;SDS011;8731;50.364;8.958;2023-03-12T18:05:12;15.87;;;11.00;;
17228;SDS011;8731;50.364;8.958;2023-03-12T18:09:35;21.00;;;11.43;;
17228;SDS011;8731;50.364;8.958;2023-03-12T18:13:58;28.03;;;12.83;;
17228;SDS011;8731;50.364;8.958;2023-03-12T18:18:21;24.90;;;12.07;;
17228;SDS011;8731;50.364;8.958;2023-03-12T18:22:45;21.63;;;11.97;;
17228;SDS011;8731;50.364;8.958;2023-03-12T18:27:07;22.97;;;12.13;;
17228;SDS011;8731;50.364;8.958;2023-03-12T18:31:31;23.50;;;11.97;;
17228;SDS011;8731;50.364;8.958;2023-03-12T18:35:53;22.20;;;12.67;;
17228;SDS011;8731;50.364;8.958;2023-03-12T18:40:16;22.53;;;10.67;;
17228;SDS011;8731;50.364;8.958;2023-03-12T18:44:38;21.57;;;10.73;;
17228;SDS011;8731;50.364;8.958;2023-03-12T18:49:05;20.40;;;10.13;;
17228;SDS011;8731;50.364;8.958;2023-03-12T18:53:31;18.17;;;10.23;;
17228;SDS011;8731;50.364;8.958;2023-03-12T18:57:53;18.47;;;9.40;;
17228;SDS011;8731;50.364;8.958;2023-03-12T19:02:15;22.73;;;9.83;;
17228;SDS011;8731;50.364;8.958;2023-03-12T19:06:39;21.93;;;10.10;;
17228;SDS011;8731;50.364;8.958;2023-03-12T19:11:02;21.30;;;8.93;;
17228;SDS011;8731;50.364;8.958;2023-03-12T19:15:26;19.60;;;8.37;;
17228;SDS011;8731;50.364;8.958;2023-03-12T19:19:50;20.57;;;8.13;;
17228;SDS011;8731;50.364;8.958;2023-03-12T19:24:15;19.70;;;7.50;;
17228;SDS011;8731;50.364;8.958;2023-03-12T19:28:37;21.37;;;8.10;;
17228;SDS011;8731;50.364;8.958;2023-03-12T19:33:09;18.40;;;7.07;;
17228;SDS011;8731;50.364;8.958;2023-03-12T19:37:33;18.40;;;5.97;;
17228;SDS011;8731;50.364;8.958;2023-03-12T19:42:22;19.40;;;6.13;;
17228;SDS011;8731;50.364;8.958;2023-03-12T19:46:45;20.60;;;6.47;;
17228;SDS011;8731;50.364;8.958;2023-03-12T19:51:18;15.83;;;4.80;;
17228;SDS011;8731;50.364;8.958;2023-03-12T19:55:48;17.30;;;5.23;;
17228;SDS011;8731;50.364;8.958;2023-03-12T20:00:18;43.40;;;16.17;;
17228;SDS011;8731;50.364;8.958;2023-03-12T20:04:49;16.67;;;5.77;;
17228;SDS011;8731;50.364;8.958;2023-03-12T20:09:12;16.87;;;5.40;;
17228;SDS011;8731;50.364;8.958;2023-03-12T20:13:34;22.23;;;7.30;;
17228;SDS011;8731;50.364;8.958;2023-03-12T20:17:59;17.33;;;6.87;;
17228;SDS011;8731;50.364;8.958;2023-03-12T20:22:36;25.90;;;9.20;;
17228;SDS011;8731;50.364;8.958;2023-03-12T20:26:59;22.77;;;7.23;;
17228;SDS011;8731;50.364;8.958;2023-03-12T20:31:21;18.13;;;6.67;;
17228;SDS011;8731;50.364;8.958;2023-03-12T20:35:45;19.67;;;6.53;;
17228;SDS011;8731;50.364;8.958;2023-03-12T20:40:07;17.00;;;6.60;;
17228;SDS011;8731;50.364;8.958;2023-03-12T20:44:31;17.23;;;7.57;;
17228;SDS011;8731;50.364;8.958;2023-03-12T20:48:53;20.83;;;5.90;;
17228;SDS011;8731;50.364;8.958;2023-03-12T20:53:17;17.57;;;5.93;;
17228;SDS011;8731;50.364;8.958;2023-03-12T20:57:40;20.60;;;7.60;;
17228;SDS011;8731;50.364;8.958;2023-03-12T21:02:02;25.57;;;9.40;;
17228;SDS011;8731;50.364;8.958;2023-03-12T21:06:24;30.30;;;11.53;;
17228;SDS011;8731;50.364;8.958;2023-03-12T21:10:48;25.90;;;10.00;;
17228;SDS011;8731;50.364;8.958;2023-03-12T21:15:11;21.07;;;7.73;;
17228;SDS011;8731;50.364;8.958;2023-03-12T21:19:34;29.07;;;9.93;;
17228;SDS011;8731;50.364;8.958;2023-03-12T21:23:56;24.27;;;6.60;;
17228;SDS011;8731;50.364;8.958;2023-03-12T21:28:19;24.73;;;6.30;;
17228;SDS011;8731;50.364;8.958;2023-03-12T21:32:42;16.27;;;5.97;;
17228;SDS011;8731;50.364;8.958;2023-03-12T21:37:04;15.87;;;5.43;;
17228;SDS011;8731;50.364;8.958;2023-03-12T21:41:27;20.33;;;5.63;;
17228;SDS011;8731;50.364;8.958;2023-03-12T21:45:50;24.80;;;6.20;;
17228;SDS011;8731;50.364;8.958;2023-03-12T21:50:13;22.10;;;8.93;;
17228;SDS011;8731;50.364;8.958;2023-03-12T21:54:35;28.70;;;10.93;;
17228;SDS011;8731;50.364;8.958;2023-03-12T21:58:57;25.73;;;10.13;;
17228;SDS011;8731;50.364;8.958;2023-03-12T22:03:21;20.13;;;6.00;;
17228;SDS011;8731;50.364;8.958;2023-03-12T22:07:43;17.87;;;5.23;;
17228;SDS011;8731;50.364;8.958;2023-03-12T22:12:06;13.90;;;5.90;;
17228;SDS011;8731;50.364;8.958;2023-03-12T22:16:28;19.30;;;8.20;;
17228;SDS011;8731;50.364;8.958;2023-03-12T22:20:52;17.97;;;7.20;;
17228;SDS011;8731;50.364;8.958;2023-03-12T22:25:16;16.57;;;5.63;;
17228;SDS011;8731;50.364;8.958;2023-03-12T22:29:39;19.60;;;5.23;;
17228;SDS011;8731;50.364;8.958;2023-03-12T22:34:02;20.67;;;5.97;;
17228;SDS011;8731;50.364;8.958;2023-03-12T22:38:26;21.60;;;6.00;;
17228;SDS011;8731;50.364;8.958;2023-03-12T22:42:48;17.10;;;6.07;;
17228;SDS011;8731;50.364;8.958;2023-03-12T22:47:11;20.07;;;6.27;;
17228;SDS011;8731;50.364;8.958;2023-03-12T22:51:33;17.40;;;5.63;;
17228;SDS011;8731;50.364;8.958;2023-03-12T22:55:58;17.07;;;6.37;;
17228;SDS011;8731;50.364;8.958;2023-03-12T23:00:21;20.97;;;6.60;;
17228;SDS011;8731;50.364;8.958;2023-03-12T23:04:45;19.97;;;6.13;;
17228;SDS011;8731;50.364;8.958;2023-03-12T23:09:08;20.80;;;6.10;;
17228;SDS011;8731;50.364;8.958;2023-03-12T23:13:32;22.77;;;6.80;;
17228;SDS011;8731;50.364;8.958;2023-03-12T23:17:57;17.93;;;5.67;;
17228;SDS011;8731;50.364;8.958;2023-03-12T23:22:20;18.20;;;4.90;;
17228;SDS011;8731;50.364;8.958;2023-03-12T23:26:42;21.27;;;4.80;;
17228;SDS011;8731;50.364;8.958;2023-03-12T23:31:07;15.80;;;3.87;;
17228;SDS011;8731;50.364;8.958;2023-03-12T23:35:30;19.30;;;4.57;;
17228;SDS011;8731;50.364;8.958;2023-03-12T23:39:52;17.80;;;4.33;;
17228;SDS011;8731;50.364;8.958;2023-03-12T23:44:15;11.67;;;4.13;;
17228;SDS011;8731;50.364;8.958;2023-03-12T23:48:39;13.23;;;4.63;;
17228;SDS011;8731;50.364;8.958;2023-03-12T23:53:02;19.27;;;4.70;;
17228;SDS011;8731;50.364;8.958;2023-03-12T23:57:24;18.80;;;4.00;;
